Terminal Aerodrome Forecast
Issued by NWS El Paso, TX

Home | Current Version | Previous Version | Text Only | Print | Product List | Glossary On
Versions: 1 2 3 4 5 6 7 8 9 10 11 12 13 14
000
FTUS44 KEPZ 300206 AAA
TAFELP
TAF AMD
KELP 300206Z 3002/3024 11011KT P6SM FEW100 BKN250
     FM300600 VRB06KT P6SM FEW100 SCT250
     FM301700 14008KT P6SM FEW080 SCT250=

USA.gov is the U.S. government's official web portal to all federal, state and local government web resources and services.